createdAt,value
2022-11-14T00:00:22.803Z,33.40
2022-11-14T00:01:22.799Z,32.00
2022-11-14T00:02:22.824Z,32.00
2022-11-14T00:03:22.790Z,35.20
2022-11-14T00:04:28.281Z,31.90
2022-11-14T00:05:24.762Z,31.80
2022-11-14T00:06:22.756Z,37.30
2022-11-14T00:07:22.890Z,34.70
2022-11-14T00:08:22.743Z,35.00
2022-11-14T00:09:22.728Z,33.20
2022-11-14T00:10:22.717Z,34.00
2022-11-14T00:11:22.706Z,32.10
2022-11-14T00:12:22.700Z,35.30
2022-11-14T00:13:22.701Z,36.00
2022-11-14T00:14:22.678Z,31.40
2022-11-14T00:15:22.675Z,37.60
2022-11-14T00:16:22.668Z,39.20
2022-11-14T00:17:22.653Z,34.60
2022-11-14T00:18:22.660Z,38.90
2022-11-14T00:19:22.637Z,38.60
2022-11-14T00:20:22.632Z,39.90
2022-11-14T00:21:22.623Z,36.80
2022-11-14T00:22:22.615Z,39.90
2022-11-14T00:23:22.703Z,38.00
2022-11-14T00:24:22.603Z,37.00
2022-11-14T00:25:22.589Z,35.20
2022-11-14T00:26:22.583Z,35.10
2022-11-14T00:27:22.570Z,34.50
2022-11-14T00:28:22.571Z,34.60
2022-11-14T00:29:22.551Z,35.10
2022-11-14T00:30:22.544Z,31.30
2022-11-14T00:31:22.534Z,34.60
2022-11-14T00:32:22.525Z,32.10
2022-11-14T00:33:22.529Z,32.90
2022-11-14T00:34:22.508Z,36.70
2022-11-14T00:35:22.502Z,34.10
2022-11-14T00:36:22.492Z,35.20
2022-11-14T00:37:22.481Z,34.20
2022-11-14T00:38:22.494Z,37.50
2022-11-14T00:39:22.556Z,38.20
2022-11-14T00:40:22.460Z,40.00
2022-11-14T00:41:22.448Z,40.40
2022-11-14T00:42:22.439Z,37.70
2022-11-14T00:43:22.444Z,39.30
2022-11-14T00:44:22.452Z,40.60
2022-11-14T00:45:22.413Z,38.90
2022-11-14T00:46:22.406Z,42.30
2022-11-14T00:47:22.398Z,42.00
2022-11-14T00:48:22.401Z,41.70
2022-11-14T00:49:22.378Z,39.10
2022-11-14T00:50:22.368Z,41.10
2022-11-14T00:51:22.364Z,37.60
2022-11-14T00:52:22.355Z,40.10
2022-11-14T00:53:22.354Z,41.30
2022-11-14T00:54:22.335Z,39.30
2022-11-14T00:55:22.411Z,44.60
2022-11-14T00:56:22.318Z,44.10
2022-11-14T00:57:22.311Z,39.00
2022-11-14T00:58:22.298Z,41.00
2022-11-14T00:59:23.294Z,42.10
2022-11-14T01:00:22.286Z,39.70
2022-11-14T01:01:22.345Z,45.10
2022-11-14T01:02:22.268Z,41.80
2022-11-14T01:03:22.275Z,45.30
2022-11-14T01:04:22.248Z,42.10
2022-11-14T01:05:22.242Z,44.00
2022-11-14T01:06:22.231Z,42.30
2022-11-14T01:07:22.225Z,42.80
2022-11-14T01:08:22.223Z,38.50
2022-11-14T01:09:22.296Z,42.90
2022-11-14T01:10:22.197Z,45.80
2022-11-14T01:11:22.272Z,41.80
2022-11-14T01:12:22.174Z,41.70
2022-11-14T01:13:22.180Z,42.20
2022-11-14T01:14:22.157Z,46.30
2022-11-14T01:15:22.158Z,44.90
2022-11-14T01:16:22.149Z,45.80
2022-11-14T01:17:22.126Z,42.10
2022-11-14T01:18:23.148Z,44.10
2022-11-14T01:19:22.114Z,43.50
2022-11-14T01:20:22.108Z,41.40
2022-11-14T01:21:22.097Z,41.30
2022-11-14T01:22:22.090Z,46.30
2022-11-14T01:23:22.093Z,49.60
2022-11-14T01:24:22.071Z,43.90
2022-11-14T01:25:22.063Z,44.10
2022-11-14T01:26:22.054Z,45.70
2022-11-14T01:27:22.127Z,49.30
2022-11-14T01:28:22.045Z,53.80
2022-11-14T01:29:22.028Z,49.30
2022-11-14T01:30:22.021Z,50.90
2022-11-14T01:31:22.012Z,51.50
2022-11-14T01:32:21.999Z,47.40
2022-11-14T01:33:22.000Z,44.10
2022-11-14T01:34:21.977Z,51.90
2022-11-14T01:35:21.975Z,50.40
2022-11-14T01:36:21.966Z,51.50
2022-11-14T01:37:21.960Z,53.40
2022-11-14T01:38:21.959Z,57.50
2022-11-14T01:39:21.943Z,50.00
2022-11-14T01:40:21.932Z,57.60
2022-11-14T01:41:21.926Z,54.20
2022-11-14T01:42:24.500Z,60.30
2022-11-14T01:43:24.007Z,57.90
2022-11-14T01:44:21.901Z,57.80
2022-11-14T01:45:21.892Z,59.50
2022-11-14T01:46:21.881Z,57.70
2022-11-14T01:47:21.876Z,59.40
2022-11-14T01:48:21.872Z,60.90
2022-11-14T01:49:21.858Z,58.50
2022-11-14T01:50:21.848Z,59.10
2022-11-14T01:51:21.837Z,54.50
2022-11-14T01:52:21.826Z,57.00
2022-11-14T01:53:21.824Z,57.60
2022-11-14T01:54:21.796Z,56.20
2022-11-14T01:55:22.798Z,58.20
2022-11-14T01:56:21.797Z,50.90
2022-11-14T01:57:21.782Z,60.00
2022-11-14T01:58:21.785Z,58.20
2022-11-14T01:59:21.859Z,58.70
2022-11-14T02:00:21.757Z,62.10
2022-11-14T02:01:21.815Z,62.20
2022-11-14T02:02:21.739Z,55.10
2022-11-14T02:03:21.740Z,54.60
2022-11-14T02:04:21.717Z,53.00
2022-11-14T02:05:21.711Z,52.60
2022-11-14T02:06:21.703Z,53.30
2022-11-14T02:07:21.731Z,52.40
2022-11-14T02:08:21.715Z,50.40
2022-11-14T02:09:21.683Z,51.80
2022-11-14T02:10:21.673Z,52.40
2022-11-14T02:11:21.663Z,55.90
2022-11-14T02:12:21.654Z,53.50
2022-11-14T02:13:21.657Z,57.50
2022-11-14T02:14:21.637Z,55.50
2022-11-14T02:15:21.720Z,58.20
2022-11-14T02:16:21.622Z,54.90
2022-11-14T02:17:29.590Z,54.80
2022-11-14T02:18:23.623Z,52.90
2022-11-14T02:19:21.595Z,52.80
2022-11-14T02:20:21.587Z,53.90
2022-11-14T02:21:21.578Z,60.90
2022-11-14T02:22:21.570Z,55.80
2022-11-14T02:23:21.573Z,54.80
2022-11-14T02:24:21.562Z,55.40
2022-11-14T02:25:21.547Z,56.40
2022-11-14T02:26:21.534Z,56.30
2022-11-14T02:27:21.526Z,59.60
2022-11-14T02:28:21.527Z,64.60
2022-11-14T02:29:21.515Z,57.90
2022-11-14T02:30:21.504Z,61.90
2022-11-14T02:31:21.576Z,59.70
2022-11-14T02:32:21.483Z,68.40
2022-11-14T02:33:21.486Z,61.30
2022-11-14T02:34:21.474Z,67.10
2022-11-14T02:35:21.461Z,63.40
2022-11-14T02:36:21.457Z,64.80
2022-11-14T02:37:21.446Z,61.20
2022-11-14T02:38:21.448Z,70.80
2022-11-14T02:39:21.433Z,67.60
2022-11-14T02:40:21.424Z,74.70
2022-11-14T02:41:21.410Z,67.70
2022-11-14T02:42:21.402Z,67.50
2022-11-14T02:43:21.407Z,65.70
2022-11-14T02:44:21.387Z,67.00
2022-11-14T02:45:21.383Z,69.20
2022-11-14T02:46:21.373Z,71.20
2022-11-14T02:47:21.355Z,70.20
2022-11-14T02:48:21.354Z,61.90
2022-11-14T02:49:21.346Z,55.20
2022-11-14T02:50:21.327Z,59.70
2022-11-14T02:51:21.321Z,56.70
2022-11-14T02:52:21.310Z,65.30
2022-11-14T02:53:21.311Z,56.30
2022-11-14T02:54:21.292Z,61.00
2022-11-14T02:55:21.284Z,57.00
2022-11-14T02:56:21.281Z,61.60
2022-11-14T02:57:21.267Z,68.30
2022-11-14T02:58:21.266Z,61.00
2022-11-14T02:59:21.250Z,60.00
2022-11-14T03:00:21.233Z,60.40
2022-11-14T03:01:21.867Z,66.20
2022-11-14T03:02:22.225Z,68.30
2022-11-14T03:03:21.303Z,66.10
2022-11-14T03:04:22.205Z,72.60
2022-11-14T03:05:21.201Z,63.00
2022-11-14T03:06:21.197Z,57.70
2022-11-14T03:07:21.237Z,60.40
2022-11-14T03:08:21.180Z,62.40
2022-11-14T03:09:21.162Z,62.50
2022-11-14T03:10:21.152Z,60.50
2022-11-14T03:11:21.141Z,61.10
2022-11-14T03:12:21.139Z,60.80
2022-11-14T03:13:21.136Z,65.70
2022-11-14T03:14:21.115Z,72.40
2022-11-14T03:15:21.109Z,69.90
2022-11-14T03:16:21.099Z,64.40
2022-11-14T03:17:21.101Z,63.90
2022-11-14T03:18:21.088Z,63.20
2022-11-14T03:19:21.162Z,67.50
2022-11-14T03:20:21.063Z,64.50
2022-11-14T03:21:21.055Z,74.50
2022-11-14T03:22:21.042Z,74.70
2022-11-14T03:23:21.045Z,70.00
2022-11-14T03:24:21.028Z,74.20
2022-11-14T03:25:21.014Z,65.60
2022-11-14T03:26:21.008Z,59.80
2022-11-14T03:27:21.001Z,66.30
2022-11-14T03:28:20.999Z,62.30
2022-11-14T03:29:20.984Z,63.50
2022-11-14T03:30:20.973Z,65.40
2022-11-14T03:31:20.963Z,64.70
2022-11-14T03:32:20.954Z,70.50
2022-11-14T03:33:20.955Z,66.60
2022-11-14T03:34:20.956Z,74.20
2022-11-14T03:35:21.032Z,69.60
2022-11-14T03:36:20.918Z,70.80
2022-11-14T03:37:20.914Z,77.30
2022-11-14T03:38:20.911Z,74.90
2022-11-14T03:39:20.892Z,70.50
2022-11-14T03:40:20.885Z,79.30
2022-11-14T03:41:20.875Z,72.60
2022-11-14T03:42:20.867Z,69.00
2022-11-14T03:43:20.865Z,72.20
2022-11-14T03:44:20.847Z,72.20
2022-11-14T03:45:20.840Z,72.70
2022-11-14T03:46:20.827Z,67.70
2022-11-14T03:47:20.819Z,67.10
2022-11-14T03:48:20.819Z,75.50
2022-11-14T03:49:20.829Z,74.10
2022-11-14T03:50:21.796Z,72.50
2022-11-14T03:51:20.868Z,90.00
2022-11-14T03:52:20.781Z,88.80
2022-11-14T03:53:20.776Z,87.60
2022-11-14T03:54:20.753Z,85.00
2022-11-14T03:55:20.747Z,93.50
2022-11-14T03:56:20.739Z,91.30
2022-11-14T03:57:20.729Z,87.00
2022-11-14T03:58:20.733Z,96.40
2022-11-14T03:59:20.709Z,88.40
2022-11-14T04:00:20.828Z,81.20
2022-11-14T04:01:20.731Z,102.10
2022-11-14T04:02:20.680Z,92.50
2022-11-14T04:03:20.685Z,82.80
2022-11-14T04:04:20.667Z,92.00
2022-11-14T04:05:20.761Z,88.10
2022-11-14T04:06:20.655Z,85.60
2022-11-14T04:07:20.773Z,94.20
2022-11-14T04:08:20.643Z,83.30
2022-11-14T04:09:20.625Z,89.30
2022-11-14T04:10:20.617Z,86.80
2022-11-14T04:11:20.608Z,88.70
2022-11-14T04:12:20.601Z,82.60
2022-11-14T04:13:20.601Z,87.60
2022-11-14T04:14:20.583Z,88.60
2022-11-14T04:15:20.577Z,82.50
2022-11-14T04:16:20.571Z,101.40
2022-11-14T04:17:20.559Z,87.70
2022-11-14T04:18:20.561Z,94.90
2022-11-14T04:19:20.548Z,80.70
2022-11-14T04:20:20.555Z,96.30
2022-11-14T04:21:20.526Z,94.40
2022-11-14T04:22:20.514Z,90.20
2022-11-14T04:23:20.601Z,79.10
2022-11-14T04:24:20.495Z,78.90
2022-11-14T04:25:20.488Z,76.80
2022-11-14T04:26:20.474Z,85.10
2022-11-14T04:27:20.466Z,82.50
2022-11-14T04:28:20.472Z,79.20
2022-11-14T04:29:20.451Z,74.80
2022-11-14T04:30:20.447Z,77.40
2022-11-14T04:31:20.437Z,69.90
2022-11-14T04:32:20.422Z,83.70
2022-11-14T04:33:20.429Z,75.20
2022-11-14T04:34:20.408Z,85.60
2022-11-14T04:35:20.398Z,86.40
2022-11-14T04:36:20.401Z,84.10
2022-11-14T04:37:20.378Z,91.30
2022-11-14T04:38:20.381Z,84.00
2022-11-14T04:39:20.445Z,85.60
2022-11-14T04:40:20.355Z,88.60
2022-11-14T04:41:20.343Z,75.80
2022-11-14T04:42:20.337Z,79.80
2022-11-14T04:43:20.339Z,71.80
2022-11-14T04:44:20.319Z,74.10
2022-11-14T04:45:20.361Z,67.70
2022-11-14T04:46:20.303Z,64.60
2022-11-14T04:47:20.291Z,64.40
2022-11-14T04:48:20.296Z,66.10
2022-11-14T04:49:20.276Z,65.60
2022-11-14T04:50:20.267Z,59.50
2022-11-14T04:51:20.256Z,60.20
2022-11-14T04:52:20.249Z,58.50
2022-11-14T04:53:20.256Z,60.10
2022-11-14T04:54:20.233Z,53.60
2022-11-14T04:55:20.311Z,53.30
2022-11-14T04:56:20.218Z,57.00
2022-11-14T04:57:20.206Z,56.30
2022-11-14T04:58:20.211Z,57.80
2022-11-14T04:59:21.242Z,64.70
2022-11-14T05:00:21.180Z,62.60
2022-11-14T05:01:20.233Z,61.80
2022-11-14T05:02:20.242Z,65.70
2022-11-14T05:03:21.260Z,64.60
2022-11-14T05:04:20.151Z,57.40
2022-11-14T05:05:20.136Z,59.80
2022-11-14T05:06:20.130Z,67.20
2022-11-14T05:07:20.172Z,69.00
2022-11-14T05:08:20.135Z,67.20
2022-11-14T05:09:20.100Z,65.10
2022-11-14T05:10:20.094Z,74.60
2022-11-14T05:11:22.241Z,73.70
2022-11-14T05:12:20.078Z,71.90
2022-11-14T05:13:20.070Z,79.30
2022-11-14T05:14:20.072Z,81.20
2022-11-14T05:15:20.047Z,76.20
2022-11-14T05:16:20.041Z,73.50
2022-11-14T05:17:20.031Z,66.40
2022-11-14T05:18:20.024Z,67.80
2022-11-14T05:19:20.023Z,75.30
2022-11-14T05:20:20.008Z,69.10
2022-11-14T05:21:19.990Z,63.50
2022-11-14T05:22:19.989Z,62.20
2022-11-14T05:23:19.976Z,63.80
2022-11-14T05:24:19.983Z,64.20
2022-11-14T05:25:19.960Z,62.90
2022-11-14T05:26:19.965Z,62.80
2022-11-14T05:27:19.945Z,63.90
2022-11-14T05:28:19.935Z,56.30
2022-11-14T05:29:19.940Z,64.50
2022-11-14T05:30:19.937Z,69.80
2022-11-14T05:31:19.906Z,59.80
2022-11-14T05:32:19.900Z,64.80
2022-11-14T05:33:19.893Z,70.40
2022-11-14T05:34:19.892Z,70.40
2022-11-14T05:35:19.872Z,77.70
2022-11-14T05:36:19.861Z,70.30
2022-11-14T05:37:19.849Z,73.90
2022-11-14T05:38:19.846Z,80.20
2022-11-14T05:39:19.849Z,83.10
2022-11-14T05:40:19.851Z,79.00
2022-11-14T05:41:19.822Z,69.50
2022-11-14T05:42:19.812Z,70.00
2022-11-14T05:43:19.807Z,72.90
2022-11-14T05:44:19.805Z,78.20
2022-11-14T05:45:19.786Z,73.80
2022-11-14T05:46:19.788Z,76.40
2022-11-14T05:47:19.768Z,75.80
2022-11-14T05:48:19.756Z,75.80
2022-11-14T05:49:22.141Z,70.80
2022-11-14T05:50:20.746Z,68.30
2022-11-14T05:51:19.734Z,70.20
2022-11-14T05:52:22.463Z,69.10
2022-11-14T05:53:19.713Z,67.80
2022-11-14T05:54:19.711Z,75.40
2022-11-14T05:55:24.548Z,69.70
2022-11-14T05:56:21.682Z,65.90
2022-11-14T05:57:19.680Z,68.90
2022-11-14T05:58:19.670Z,56.30
2022-11-14T05:59:19.671Z,58.30
2022-11-14T06:00:19.650Z,55.40
2022-11-14T06:01:19.640Z,54.20
2022-11-14T06:02:19.685Z,46.30
2022-11-14T06:03:19.637Z,52.50
2022-11-14T06:04:19.620Z,47.20
2022-11-14T06:05:19.603Z,44.80
2022-11-14T06:06:19.595Z,43.50
2022-11-14T06:07:20.538Z,45.10
2022-11-14T06:08:20.577Z,44.90
2022-11-14T06:09:19.577Z,48.50
2022-11-14T06:10:19.561Z,51.20
2022-11-14T06:11:19.555Z,47.60
2022-11-14T06:12:19.535Z,48.40
2022-11-14T06:13:19.542Z,49.90
2022-11-14T06:14:19.524Z,51.30
2022-11-14T06:15:19.522Z,50.80
2022-11-14T06:16:19.515Z,51.40
2022-11-14T06:17:19.509Z,44.00
2022-11-14T06:18:19.515Z,46.20
2022-11-14T06:19:20.479Z,45.40
2022-11-14T06:20:19.474Z,51.10
2022-11-14T06:21:19.464Z,48.50
2022-11-14T06:22:19.456Z,46.90
2022-11-14T06:23:24.433Z,44.50
2022-11-14T06:24:21.437Z,45.80
2022-11-14T06:25:19.432Z,46.60
2022-11-14T06:26:19.420Z,46.70
2022-11-14T06:27:19.406Z,43.70
2022-11-14T06:28:19.414Z,43.40
2022-11-14T06:29:19.401Z,39.40
2022-11-14T06:30:19.382Z,42.90
2022-11-14T06:31:19.377Z,45.50
2022-11-14T06:32:19.365Z,41.70
2022-11-14T06:33:19.372Z,41.90
2022-11-14T06:34:19.354Z,43.00
2022-11-14T06:35:19.343Z,43.90
2022-11-14T06:36:19.337Z,41.50
2022-11-14T06:37:19.333Z,44.50
2022-11-14T06:38:19.329Z,44.80
2022-11-14T06:39:19.332Z,41.70
2022-11-14T06:40:19.299Z,46.70
2022-11-14T06:41:19.291Z,39.70
2022-11-14T06:42:19.285Z,43.00
2022-11-14T06:43:19.280Z,40.10
2022-11-14T06:44:19.263Z,42.30
2022-11-14T06:45:19.256Z,41.30
2022-11-14T06:46:19.250Z,41.30
2022-11-14T06:47:19.242Z,43.50
2022-11-14T06:48:19.239Z,42.20
2022-11-14T06:49:19.233Z,41.30
2022-11-14T06:50:19.205Z,40.60
2022-11-14T06:51:19.203Z,39.10
2022-11-14T06:52:19.199Z,43.50
2022-11-14T06:53:19.190Z,39.30
2022-11-14T06:54:19.175Z,43.10
2022-11-14T06:55:24.988Z,42.80
2022-11-14T06:56:21.154Z,39.10
2022-11-14T06:57:19.149Z,36.90
2022-11-14T06:58:19.148Z,39.70
2022-11-14T06:59:19.129Z,39.20
2022-11-14T07:00:19.125Z,37.40
2022-11-14T07:01:19.119Z,36.80
2022-11-14T07:02:21.854Z,38.80
2022-11-14T07:03:20.191Z,40.80
2022-11-14T07:04:19.090Z,40.40
2022-11-14T07:05:19.082Z,38.00
2022-11-14T07:06:19.073Z,38.20
2022-11-14T07:07:19.089Z,40.60
2022-11-14T07:08:21.262Z,41.70
2022-11-14T07:09:20.044Z,42.30
2022-11-14T07:10:19.038Z,41.30
2022-11-14T07:11:19.031Z,41.60
2022-11-14T07:12:19.019Z,40.50
2022-11-14T07:13:19.023Z,41.30
2022-11-14T07:14:19.007Z,39.50
2022-11-14T07:15:18.996Z,38.40
2022-11-14T07:16:19.008Z,35.00
2022-11-14T07:17:18.976Z,37.20
2022-11-14T07:18:18.985Z,37.00
2022-11-14T07:19:18.960Z,38.90
2022-11-14T07:20:18.950Z,39.60
2022-11-14T07:21:18.941Z,38.90
2022-11-14T07:22:18.930Z,37.70
2022-11-14T07:23:22.821Z,38.60
2022-11-14T07:24:19.915Z,40.60
2022-11-14T07:25:18.908Z,37.30
2022-11-14T07:26:18.895Z,38.80
2022-11-14T07:27:18.890Z,38.10
2022-11-14T07:28:18.886Z,36.80
2022-11-14T07:29:18.871Z,36.80
2022-11-14T07:30:18.861Z,40.40
2022-11-14T07:31:18.861Z,37.40
2022-11-14T07:32:18.845Z,40.30
2022-11-14T07:33:18.853Z,38.60
2022-11-14T07:34:18.835Z,40.10
2022-11-14T07:35:18.822Z,42.40
2022-11-14T07:36:18.827Z,43.20
2022-11-14T07:37:18.801Z,38.40
2022-11-14T07:38:18.798Z,44.20
2022-11-14T07:39:18.783Z,40.10
2022-11-14T07:40:18.776Z,40.30
2022-11-14T07:41:18.770Z,42.20
2022-11-14T07:42:18.750Z,44.40
2022-11-14T07:43:19.760Z,43.00
2022-11-14T07:44:18.739Z,41.50
2022-11-14T07:45:18.730Z,40.50
2022-11-14T07:46:18.730Z,39.60
2022-11-14T07:47:18.720Z,42.90
2022-11-14T07:48:18.721Z,42.10
2022-11-14T07:49:18.728Z,40.00
2022-11-14T07:50:20.534Z,45.20
2022-11-14T07:51:19.684Z,41.80
2022-11-14T07:52:18.673Z,39.20
2022-11-14T07:53:18.678Z,39.80
2022-11-14T07:54:18.660Z,38.50
2022-11-14T07:55:18.651Z,39.70
2022-11-14T07:56:18.649Z,36.90
2022-11-14T07:57:18.633Z,45.50
2022-11-14T07:58:18.636Z,38.60
2022-11-14T07:59:18.619Z,39.30
2022-11-14T08:00:18.615Z,37.50
2022-11-14T08:01:18.652Z,40.30
2022-11-14T08:02:18.593Z,35.20
2022-11-14T08:03:18.604Z,37.20
2022-11-14T08:04:18.571Z,38.10
2022-11-14T08:05:18.566Z,35.30
2022-11-14T08:06:18.561Z,34.00
2022-11-14T08:07:18.667Z,34.70
2022-11-14T08:08:18.536Z,35.10
2022-11-14T08:09:18.540Z,35.50
2022-11-14T08:10:18.524Z,38.60
2022-11-14T08:11:31.771Z,36.10
2022-11-14T08:12:20.503Z,34.90
2022-11-14T08:13:31.457Z,36.00
2022-11-14T08:14:20.495Z,33.50
2022-11-14T08:15:18.476Z,38.80
2022-11-14T08:16:18.469Z,33.30
2022-11-14T08:17:18.469Z,35.40
2022-11-14T08:18:18.464Z,33.10
2022-11-14T08:19:18.459Z,36.70
2022-11-14T08:20:18.434Z,34.90
2022-11-14T08:21:18.424Z,35.90
2022-11-14T08:22:18.415Z,41.70
2022-11-14T08:23:18.426Z,36.60
2022-11-14T08:24:18.414Z,37.70
2022-11-14T08:25:18.392Z,34.20
2022-11-14T08:26:18.385Z,37.10
2022-11-14T08:27:18.373Z,34.40
2022-11-14T08:28:18.366Z,34.30
2022-11-14T08:29:18.368Z,35.10
2022-11-14T08:30:18.351Z,34.00
2022-11-14T08:31:18.343Z,34.30
2022-11-14T08:32:18.347Z,33.80
2022-11-14T08:33:18.327Z,32.40
2022-11-14T08:34:18.330Z,34.50
2022-11-14T08:35:18.305Z,31.80
2022-11-14T08:36:18.308Z,34.30
2022-11-14T08:37:18.291Z,31.00
2022-11-14T08:38:18.286Z,32.20
2022-11-14T08:39:18.286Z,31.30
2022-11-14T08:40:18.268Z,34.20
2022-11-14T08:41:18.257Z,30.10
2022-11-14T08:42:18.244Z,33.00
2022-11-14T08:43:18.237Z,32.60
2022-11-14T08:44:18.236Z,30.70
2022-11-14T08:45:18.217Z,33.50
2022-11-14T08:46:18.208Z,31.40
2022-11-14T08:47:18.199Z,29.70
2022-11-14T08:48:18.187Z,34.20
2022-11-14T08:49:18.191Z,31.70
2022-11-14T08:50:18.179Z,32.80
2022-11-14T08:51:18.160Z,29.60
2022-11-14T08:52:18.154Z,30.70
2022-11-14T08:53:18.141Z,31.10
2022-11-14T08:54:18.139Z,32.90
2022-11-14T08:55:18.120Z,29.80
2022-11-14T08:56:18.106Z,28.20
2022-11-14T08:57:18.090Z,31.00
2022-11-14T08:58:18.085Z,29.40
2022-11-14T08:59:18.086Z,27.60
2022-11-14T09:00:18.077Z,27.20
2022-11-14T09:01:18.055Z,27.90
2022-11-14T09:02:18.043Z,30.80
2022-11-14T09:03:18.046Z,26.70
2022-11-14T09:04:18.059Z,24.50
2022-11-14T09:05:18.016Z,25.90
2022-11-14T09:06:18.006Z,26.80
2022-11-14T09:07:18.043Z,29.00
2022-11-14T09:08:17.985Z,30.10
2022-11-14T09:09:17.980Z,28.00
2022-11-14T09:10:17.962Z,29.20
2022-11-14T09:11:19.286Z,28.30
2022-11-14T09:12:18.950Z,29.00
2022-11-14T09:13:17.941Z,26.50
2022-11-14T09:14:17.938Z,28.90
2022-11-14T09:15:17.918Z,32.70
2022-11-14T09:16:17.905Z,32.00
2022-11-14T09:17:17.896Z,28.60
2022-11-14T09:18:17.880Z,28.00
2022-11-14T09:19:18.890Z,27.20
2022-11-14T09:20:17.872Z,28.40
2022-11-14T09:21:17.861Z,28.40
2022-11-14T09:22:17.849Z,30.80
2022-11-14T09:23:17.842Z,29.10
2022-11-14T09:24:17.844Z,29.70
2022-11-14T09:25:17.817Z,29.00
2022-11-14T09:26:17.840Z,28.70
2022-11-14T09:27:17.797Z,29.90
2022-11-14T09:28:17.804Z,29.70
2022-11-14T09:29:17.798Z,29.60
2022-11-14T09:30:17.772Z,29.40
2022-11-14T09:31:17.762Z,29.90
2022-11-14T09:32:17.750Z,29.80
2022-11-14T09:33:17.745Z,28.80
2022-11-14T09:34:17.747Z,28.10
2022-11-14T09:35:17.729Z,28.80
2022-11-14T09:36:17.716Z,28.50
2022-11-14T09:37:17.700Z,29.90
2022-11-14T09:38:17.688Z,28.90
2022-11-14T09:39:17.691Z,29.50
2022-11-14T09:40:17.670Z,28.10
2022-11-14T09:41:17.657Z,28.20
2022-11-14T09:42:17.765Z,25.50
2022-11-14T09:43:17.637Z,26.40
2022-11-14T09:44:20.480Z,27.70
2022-11-14T09:45:18.618Z,29.80
2022-11-14T09:46:17.627Z,29.90
2022-11-14T09:47:20.760Z,29.60
2022-11-14T09:48:18.586Z,26.50
2022-11-14T09:49:17.584Z,26.50
2022-11-14T09:50:21.794Z,27.80
2022-11-14T09:51:18.556Z,27.10
2022-11-14T09:52:17.542Z,27.40
2022-11-14T09:53:17.533Z,27.60
2022-11-14T09:54:17.538Z,32.00
2022-11-14T09:55:17.514Z,28.60
2022-11-14T09:56:17.503Z,28.70
2022-11-14T09:57:17.492Z,27.00
2022-11-14T09:58:17.481Z,27.10
2022-11-14T09:59:17.484Z,30.20
2022-11-14T10:00:17.462Z,30.90
2022-11-14T10:01:17.457Z,29.00
2022-11-14T10:02:17.504Z,27.90
2022-11-14T10:03:17.434Z,29.40
2022-11-14T10:04:17.433Z,27.00
2022-11-14T10:05:17.418Z,29.00
2022-11-14T10:06:17.401Z,27.90
2022-11-14T10:07:17.501Z,27.90
2022-11-14T10:08:18.383Z,26.10
2022-11-14T10:09:17.385Z,29.20
2022-11-14T10:10:17.363Z,31.10
2022-11-14T10:11:17.353Z,31.60
2022-11-14T10:12:17.344Z,30.40
2022-11-14T10:13:17.342Z,29.10
2022-11-14T10:14:17.337Z,28.60
2022-11-14T10:15:17.316Z,29.40
2022-11-14T10:16:17.305Z,29.40
2022-11-14T10:17:17.296Z,27.70
2022-11-14T10:18:17.295Z,29.00
2022-11-14T10:19:17.274Z,32.00
2022-11-14T10:20:18.265Z,28.20
2022-11-14T10:21:17.252Z,30.00
2022-11-14T10:22:17.241Z,28.70
2022-11-14T10:23:17.231Z,37.00
2022-11-14T10:24:17.246Z,33.10
2022-11-14T10:25:17.216Z,29.10
2022-11-14T10:26:17.211Z,31.00
2022-11-14T10:27:17.191Z,29.40
2022-11-14T10:28:17.183Z,32.70
2022-11-14T10:29:17.182Z,30.50
2022-11-14T10:30:17.215Z,29.30
2022-11-14T10:31:31.304Z,29.40
2022-11-14T10:32:31.292Z,32.20
2022-11-14T10:33:31.280Z,33.90
2022-11-14T10:34:31.285Z,32.90
2022-11-14T10:35:35.122Z,28.90
2022-11-14T10:36:31.253Z,32.50
2022-11-14T10:37:31.240Z,33.90
2022-11-14T10:38:31.388Z,34.60
2022-11-14T10:39:31.227Z,30.80
2022-11-14T10:40:31.209Z,31.10
2022-11-14T10:42:03.188Z,31.00
2022-11-14T10:42:32.208Z,30.50
2022-11-14T10:43:32.307Z,31.70
2022-11-14T10:44:32.300Z,30.80
2022-11-14T10:45:32.271Z,30.20
2022-11-14T10:46:32.266Z,30.00
2022-11-14T10:47:32.251Z,29.90
2022-11-14T10:48:32.541Z,27.10
2022-11-14T10:49:32.244Z,30.20
2022-11-14T10:50:32.228Z,30.90
2022-11-14T10:51:32.215Z,28.40
2022-11-14T10:52:32.209Z,29.40
2022-11-14T10:53:32.194Z,32.40
2022-11-14T10:54:32.213Z,29.00
2022-11-14T10:56:34.174Z,29.70
2022-11-14T10:57:32.157Z,31.30
2022-11-14T10:58:46.678Z,30.80
2022-11-14T10:59:33.151Z,31.90
2022-11-14T11:00:32.135Z,31.90
2022-11-14T11:01:32.192Z,29.80
2022-11-14T11:02:36.224Z,31.50
2022-11-14T11:03:33.121Z,31.90
2022-11-14T11:04:32.112Z,31.80
2022-11-14T11:05:32.082Z,31.00
2022-11-14T11:06:32.071Z,31.90
2022-11-14T11:07:32.180Z,32.70
2022-11-14T11:08:47.881Z,28.90
2022-11-14T11:09:34.091Z,34.30
2022-11-14T11:10:32.034Z,33.80
2022-11-14T11:11:32.060Z,30.00
2022-11-14T11:12:32.067Z,31.20
2022-11-14T11:13:32.012Z,30.70
2022-11-14T11:14:32.009Z,31.70
2022-11-14T11:15:31.993Z,32.30
2022-11-14T11:16:31.976Z,29.70
2022-11-14T11:17:38.555Z,30.10
2022-11-14T11:18:34.321Z,28.40
2022-11-14T11:19:31.958Z,30.00
2022-11-14T11:20:31.936Z,29.80
2022-11-14T11:21:31.999Z,29.30
2022-11-14T11:22:31.921Z,31.70
2022-11-14T11:23:31.903Z,30.50
2022-11-14T11:24:31.909Z,30.30
2022-11-14T11:25:31.884Z,28.10
2022-11-14T11:26:31.869Z,29.50
2022-11-14T11:27:31.865Z,33.20
2022-11-14T11:28:32.078Z,30.10
2022-11-14T11:29:31.854Z,29.70
2022-11-14T11:30:31.834Z,29.70
2022-11-14T11:31:31.834Z,31.10
2022-11-14T11:32:31.817Z,29.60
2022-11-14T11:33:32.099Z,28.10
2022-11-14T11:34:31.800Z,28.80
2022-11-14T11:35:31.787Z,30.20
2022-11-14T11:36:31.767Z,30.20
2022-11-14T11:37:31.803Z,29.00
2022-11-14T11:38:32.032Z,27.70
2022-11-14T11:39:31.753Z,31.00
2022-11-14T11:40:31.729Z,28.60
2022-11-14T11:43:12.312Z,29.80
2022-11-14T11:43:40.810Z,29.70
2022-11-14T11:44:33.700Z,27.30
2022-11-14T11:45:31.677Z,28.40
2022-11-14T11:46:31.672Z,29.50
2022-11-14T11:47:31.661Z,29.70
2022-11-14T11:48:31.646Z,27.20
2022-11-14T11:49:31.680Z,25.80
2022-11-14T11:50:31.634Z,27.50
2022-11-14T11:51:31.619Z,27.20
2022-11-14T11:53:03.515Z,25.70
2022-11-14T11:53:31.946Z,28.70
2022-11-14T11:54:31.594Z,27.10
2022-11-14T11:55:31.575Z,27.70
2022-11-14T11:56:31.566Z,28.70
2022-11-14T11:57:31.556Z,27.40
2022-11-14T11:58:31.542Z,25.80
2022-11-14T11:59:31.546Z,26.70
2022-11-14T12:00:31.525Z,27.00
2022-11-14T12:01:31.512Z,27.00
2022-11-14T12:02:31.648Z,27.00
2022-11-14T12:03:31.614Z,26.60
2022-11-14T12:04:31.494Z,25.80
2022-11-14T12:05:31.473Z,28.00
2022-11-14T12:06:31.459Z,26.80
2022-11-14T12:07:31.534Z,31.20
2022-11-14T12:08:31.430Z,26.30
2022-11-14T12:09:55.736Z,27.20
2022-11-14T12:10:33.419Z,29.10
2022-11-14T12:11:31.408Z,29.00
2022-11-14T12:12:31.396Z,27.50
2022-11-14T12:13:31.883Z,26.50
2022-11-14T12:14:31.466Z,27.20
2022-11-14T12:15:31.370Z,27.00
2022-11-14T12:16:31.359Z,25.80
2022-11-14T12:17:31.351Z,31.60
2022-11-14T12:18:31.345Z,27.70
2022-11-14T12:19:31.335Z,25.00
2022-11-14T12:20:31.317Z,25.60
2022-11-14T12:21:31.308Z,26.60
2022-11-14T12:22:31.296Z,28.40
2022-11-14T12:23:31.583Z,23.70
2022-11-14T12:24:31.296Z,25.70
2022-11-14T12:25:31.273Z,24.70
2022-11-14T12:26:31.261Z,24.10
2022-11-14T12:27:31.314Z,24.70
2022-11-14T12:28:31.238Z,23.30
2022-11-14T12:29:31.248Z,21.50
2022-11-14T12:30:31.221Z,23.80
2022-11-14T12:31:31.210Z,22.90
2022-11-14T12:32:31.203Z,23.10
2022-11-14T12:33:31.551Z,24.30
2022-11-14T12:34:31.247Z,26.10
2022-11-14T12:35:31.248Z,24.40
2022-11-14T12:36:31.163Z,25.70
2022-11-14T12:37:31.193Z,23.30
2022-11-14T12:38:31.146Z,26.90
2022-11-14T12:39:31.154Z,24.50
2022-11-14T12:40:31.128Z,23.80
2022-11-14T12:41:31.117Z,26.00
2022-11-14T12:42:31.108Z,23.90
2022-11-14T12:43:42.822Z,22.20
2022-11-14T12:44:33.160Z,22.50
2022-11-14T12:45:31.083Z,22.70
2022-11-14T12:46:31.064Z,25.60
2022-11-14T12:47:31.052Z,23.30
2022-11-14T12:48:31.046Z,22.20
2022-11-14T12:49:35.207Z,22.80
2022-11-14T12:50:32.050Z,21.70
2022-11-14T12:51:31.071Z,23.90
2022-11-14T12:52:31.001Z,21.00
2022-11-14T12:53:31.316Z,23.70
2022-11-14T12:54:30.993Z,23.80